Time;durP1;ratioP1;P1;durP2;ratioP2;P2;SDS_P1;SDS_P2;PMS_P1;PMS_P2;Temp;Humidity;BMP_temperature;BMP_pressure;BME280_temperature;BME280_humidity;BME280_pressure;Samples;Min_cycle;Max_cycle;Signal;HPM_P1;HPM_P2
2023/05/30 00:01:18;;;;;;;3.37;2.33;;;17.30;99.90;;;;;;5017870;28;20238;-78
2023/05/30 00:03:44;;;;;;;5.80;2.40;;;17.20;99.90;;;;;;5000816;28;20576;-77
2023/05/30 00:06:14;;;;;;;4.03;2.40;;;17.10;99.90;;;;;;5018085;28;20204;-77
2023/05/30 00:08:40;;;;;;;6.17;2.70;;;17.10;99.90;;;;;;5017838;28;20172;-78
2023/05/30 00:11:06;;;;;;;4.47;2.50;;;17.10;99.90;;;;;;5016938;28;20196;-78
2023/05/30 00:13:32;;;;;;;2.60;2.37;;;17.10;99.90;;;;;;5018344;28;20172;-78
2023/05/30 00:15:58;;;;;;;3.13;2.30;;;17.00;99.90;;;;;;5016767;28;20229;-79
2023/05/30 00:18:25;;;;;;;5.03;2.53;;;17.00;99.90;;;;;;5018098;28;20595;-78
2023/05/30 00:20:51;;;;;;;5.27;2.00;;;16.90;99.90;;;;;;5007088;28;20728;-76
2023/05/30 00:23:17;;;;;;;3.47;2.50;;;17.00;99.90;;;;;;5011826;23;20252;-74
2023/05/30 00:25:45;;;;;;;4.60;2.30;;;17.00;99.90;;;;;;4986461;28;20207;-75
2023/05/30 00:28:11;;;;;;;2.47;2.27;;;16.90;99.90;;;;;;4992520;28;20201;-75
2023/05/30 00:30:37;;;;;;;4.90;2.47;;;16.80;99.90;;;;;;4992852;28;20177;-74
2023/05/30 00:33:03;;;;;;;4.90;2.00;;;16.80;99.90;;;;;;4991722;28;20279;-76
2023/05/30 00:35:28;;;;;;;4.70;2.63;;;16.80;99.90;;;;;;4991077;28;20251;-75
2023/05/30 00:37:54;;;;;;;9.97;2.43;;;16.80;99.90;;;;;;4991499;28;20210;-74
2023/05/30 00:40:20;;;;;;;5.13;2.67;;;16.80;99.90;;;;;;4975480;28;20177;-74
2023/05/30 00:42:46;;;;;;;4.53;2.50;;;16.70;99.90;;;;;;4978364;28;20670;-75
2023/05/30 00:45:11;;;;;;;7.30;2.60;;;16.70;99.90;;;;;;4988346;28;20172;-75
2023/05/30 00:47:37;;;;;;;4.03;2.23;;;16.70;99.90;;;;;;4971966;28;20736;-75
2023/05/30 00:50:05;;;;;;;2.57;2.37;;;16.60;99.90;;;;;;4984525;28;20769;-75
2023/05/30 00:52:31;;;;;;;5.17;1.80;;;16.70;99.90;;;;;;4989885;28;20226;-75
2023/05/30 00:55:02;;;;;;;4.37;2.23;;;16.60;99.90;;;;;;4978281;28;20174;-75
2023/05/30 00:57:29;;;;;;;4.27;2.00;;;16.60;99.90;;;;;;4983331;28;20173;-75
2023/05/30 00:59:56;;;;;;;2.33;2.13;;;16.50;99.90;;;;;;4985980;28;20714;-75
2023/05/30 01:02:23;;;;;;;2.60;2.40;;;16.50;99.90;;;;;;4982146;28;20201;-75
2023/05/30 01:04:49;;;;;;;5.17;2.60;;;16.50;99.90;;;;;;4982924;28;20195;-75
2023/05/30 01:07:14;;;;;;;6.57;2.23;;;16.50;99.90;;;;;;4979802;28;20666;-76
2023/05/30 01:09:40;;;;;;;3.70;2.33;;;16.40;99.90;;;;;;4991001;28;20184;-75
2023/05/30 01:12:22;;;;;;;2.83;2.37;;;16.50;99.90;;;;;;4991244;28;20209;-75
2023/05/30 01:14:59;;;;;;;5.33;2.33;;;16.40;99.90;;;;;;4985834;28;20731;-75
2023/05/30 01:17:33;;;;;;;4.17;2.30;;;16.40;99.90;;;;;;4983997;28;20188;-74
2023/05/30 01:20:07;;;;;;;3.67;2.30;;;16.30;99.90;;;;;;4991167;28;20172;-74
2023/05/30 01:23:00;;;;;;;7.23;2.40;;;16.30;99.90;;;;;;4976069;28;20220;-75
2023/05/30 01:25:32;;;;;;;3.63;1.93;;;16.30;99.90;;;;;;4977426;28;20573;-75
2023/05/30 01:28:16;;;;;;;5.83;2.37;;;16.30;99.90;;;;;;4971667;28;20189;-75
2023/05/30 01:30:47;;;;;;;4.07;2.30;;;16.20;99.90;;;;;;4984403;28;20181;-76
2023/05/30 01:33:13;;;;;;;2.40;1.97;;;16.20;99.90;;;;;;4971430;28;20196;-74
2023/05/30 01:35:46;;;;;;;2.97;2.50;;;16.10;99.90;;;;;;4983139;28;20181;-74
2023/05/30 01:38:12;;;;;;;6.27;2.40;;;16.10;99.90;;;;;;4981160;28;20653;-74
2023/05/30 01:40:39;;;;;;;2.50;2.30;;;16.10;99.90;;;;;;4973969;28;20265;-75
2023/05/30 01:43:55;;;;;;;5.47;2.30;;;16.00;99.90;;;;;;4971402;28;20192;-75
2023/05/30 01:46:33;;;;;;;2.53;2.10;;;16.00;99.90;;;;;;4966315;28;20293;-75
2023/05/30 01:49:05;;;;;;;5.23;2.50;;;15.90;99.90;;;;;;4976356;28;20177;-75
2023/05/30 01:51:38;;;;;;;6.07;2.37;;;;;;;;;;4976505;28;20169;-74
2023/05/30 01:54:07;;;;;;;3.27;2.40;;;15.90;99.90;;;;;;4977667;28;20243;-76
2023/05/30 01:56:34;;;;;;;3.87;2.27;;;15.90;99.90;;;;;;4987759;28;20184;-75
2023/05/30 01:59:02;;;;;;;6.30;2.70;;;15.80;99.90;;;;;;4970968;28;20189;-75
2023/05/30 02:01:29;;;;;;;6.60;2.27;;;15.80;99.90;;;;;;4984149;28;20183;-75
2023/05/30 02:03:55;;;;;;;4.27;2.43;;;15.80;99.90;;;;;;4981308;28;20248;-75
2023/05/30 02:06:22;;;;;;;2.50;2.03;;;15.80;99.90;;;;;;4970702;28;20200;-74
2023/05/30 02:08:47;;;;;;;4.57;2.20;;;15.80;99.90;;;;;;4971487;28;20177;-74
2023/05/30 02:11:13;;;;;;;2.53;2.10;;;15.70;99.90;;;;;;4971666;28;20260;-73
2023/05/30 02:13:38;;;;;;;7.03;2.57;;;15.60;99.90;;;;;;4971197;28;20193;-74
2023/05/30 02:16:05;;;;;;;4.77;2.60;;;15.50;99.90;;;;;;4984899;28;20188;-74
2023/05/30 02:18:31;;;;;;;5.33;2.10;;;15.50;99.90;;;;;;4981816;28;20181;-75
2023/05/30 02:20:56;;;;;;;3.80;2.10;;;15.40;99.90;;;;;;4970469;28;20208;-75
2023/05/30 02:23:22;;;;;;;5.20;2.40;;;15.50;99.90;;;;;;4969373;28;20582;-74
2023/05/30 02:25:48;;;;;;;4.83;2.47;;;;;;;;;;4969757;28;20298;-75
2023/05/30 02:28:13;;;;;;;4.00;2.40;;;15.30;99.90;;;;;;4978803;28;20542;-75
2023/05/30 02:30:39;;;;;;;5.63;2.23;;;15.30;99.90;;;;;;4976885;28;20181;-75
2023/05/30 02:33:05;;;;;;;4.40;2.20;;;15.30;99.90;;;;;;4989990;28;20199;-74
2023/05/30 02:35:30;;;;;;;4.33;2.50;;;15.20;99.90;;;;;;4987650;28;20176;-74
2023/05/30 02:37:56;;;;;;;4.43;2.43;;;15.10;99.90;;;;;;4970193;28;20173;-74
2023/05/30 02:40:21;;;;;;;4.33;2.63;;;15.10;99.90;;;;;;4971856;28;20534;-74
2023/05/30 02:42:47;;;;;;;4.33;2.33;;;15.00;99.90;;;;;;4989890;28;20192;-76
2023/05/30 02:45:13;;;;;;;4.13;2.00;;;15.00;99.90;;;;;;4974876;28;20196;-74
2023/05/30 02:47:39;;;;;;;2.73;2.20;;;14.90;99.90;;;;;;4970219;28;20287;-74
2023/05/30 02:50:05;;;;;;;4.00;2.23;;;14.90;99.90;;;;;;4983048;28;20229;-74
2023/05/30 02:52:31;;;;;;;4.30;2.40;;;14.90;99.90;;;;;;4988196;28;20189;-74
2023/05/30 02:54:56;;;;;;;3.97;2.10;;;14.90;99.90;;;;;;4975999;28;20678;-76
2023/05/30 02:57:22;;;;;;;3.37;2.00;;;14.90;99.90;;;;;;4981550;28;20220;-75
2023/05/30 02:59:48;;;;;;;5.43;2.40;;;14.70;99.90;;;;;;4969328;28;20260;-75
2023/05/30 03:02:13;;;;;;;4.40;2.40;;;14.70;99.90;;;;;;4970003;28;20208;-74
2023/05/30 03:04:39;;;;;;;2.67;1.87;;;14.70;99.90;;;;;;4969372;28;20181;-75
2023/05/30 03:07:07;;;;;;;4.70;2.10;;;14.70;99.90;;;;;;4985295;28;20192;-75
2023/05/30 03:09:34;;;;;;;3.60;2.00;;;14.70;99.90;;;;;;4983127;28;20226;-75
2023/05/30 03:12:00;;;;;;;3.27;2.10;;;14.70;99.90;;;;;;4987638;28;20201;-75
2023/05/30 03:14:26;;;;;;;5.13;2.20;;;14.80;99.90;;;;;;4974899;28;20650;-74
2023/05/30 03:16:51;;;;;;;4.23;2.13;;;14.80;99.90;;;;;;4993521;28;20177;-74
2023/05/30 03:19:17;;;;;;;6.50;2.30;;;14.70;99.90;;;;;;4976262;28;20256;-74
2023/05/30 03:21:43;;;;;;;2.57;1.87;;;14.70;99.90;;;;;;4978927;28;20225;-74
2023/05/30 03:24:08;;;;;;;4.33;1.90;;;14.60;99.90;;;;;;4974276;28;20177;-75
2023/05/30 03:26:34;;;;;;;2.83;2.10;;;14.60;99.90;;;;;;4970453;28;20201;-74
2023/05/30 03:29:01;;;;;;;4.30;2.30;;;14.60;99.90;;;;;;4968255;28;20185;-74
2023/05/30 03:31:29;;;;;;;2.97;2.00;;;14.60;99.90;;;;;;4969650;28;20269;-74
2023/05/30 03:33:54;;;;;;;3.73;1.80;;;14.50;99.90;;;;;;4986450;28;20191;-74
2023/05/30 03:36:20;;;;;;;2.83;1.93;;;14.50;99.90;;;;;;4996312;28;20539;-75
2023/05/30 03:38:46;;;;;;;4.70;2.10;;;14.60;99.90;;;;;;4996297;28;20697;-75
2023/05/30 03:41:12;;;;;;;5.13;2.43;;;14.50;99.90;;;;;;4995000;28;20187;-76
2023/05/30 03:43:37;;;;;;;4.80;2.03;;;14.50;99.90;;;;;;4995640;28;20311;-74
2023/05/30 03:46:03;;;;;;;2.73;1.90;;;14.50;99.90;;;;;;4995432;28;20574;-74
2023/05/30 03:48:28;;;;;;;2.70;1.70;;;14.60;99.90;;;;;;4995240;28;20172;-74
2023/05/30 03:50:54;;;;;;;4.37;1.93;;;14.50;99.90;;;;;;4995419;28;20233;-75
2023/05/30 03:53:20;;;;;;;3.83;1.70;;;14.50;99.90;;;;;;4989986;28;20745;-74
2023/05/30 03:55:45;;;;;;;4.00;2.10;;;14.50;99.90;;;;;;4975437;28;20170;-74
2023/05/30 03:58:11;;;;;;;5.73;2.07;;;14.50;99.90;;;;;;4978337;28;20198;-74
2023/05/30 04:00:36;;;;;;;6.17;1.73;;;14.50;99.90;;;;;;4994609;28;20235;-75
2023/05/30 04:03:02;;;;;;;3.63;1.83;;;14.50;99.90;;;;;;4994915;28;20195;-75
2023/05/30 04:05:28;;;;;;;6.33;1.90;;;14.50;99.90;;;;;;4981539;28;20197;-75
2023/05/30 04:07:53;;;;;;;5.17;1.93;;;14.40;99.90;;;;;;4993589;28;20552;-74
2023/05/30 04:10:19;;;;;;;4.73;2.03;;;14.50;99.90;;;;;;4980618;28;20184;-74
2023/05/30 04:12:44;;;;;;;5.20;2.10;;;14.60;99.90;;;;;;4971261;28;21853;-75
2023/05/30 04:15:10;;;;;;;4.30;1.80;;;14.60;99.90;;;;;;4959556;28;20184;-74
2023/05/30 04:17:36;;;;;;;2.80;1.83;;;14.50;99.90;;;;;;4973188;28;20272;-74
2023/05/30 04:20:04;;;;;;;6.00;2.20;;;14.50;99.90;;;;;;4974942;28;20235;-74
2023/05/30 04:22:30;;;;;;;5.00;2.07;;;14.60;99.90;;;;;;4992215;28;20228;-75
2023/05/30 04:24:56;;;;;;;5.83;1.90;;;14.60;99.90;;;;;;4992419;28;20279;-74
2023/05/30 04:27:22;;;;;;;3.23;1.60;;;14.50;99.90;;;;;;4992732;28;20283;-75
2023/05/30 04:29:48;;;;;;;5.10;1.70;;;14.50;99.90;;;;;;4990883;28;20176;-75
2023/05/30 04:32:14;;;;;;;7.67;2.07;;;14.60;99.90;;;;;;4986716;28;20857;-73
2023/05/30 04:34:39;;;;;;;4.17;2.13;;;14.60;99.90;;;;;;4991497;28;20176;-74
2023/05/30 04:37:07;;;;;;;4.93;1.73;;;14.70;99.90;;;;;;4991549;28;20173;-76
2023/05/30 04:39:33;;;;;;;6.97;1.87;;;14.60;99.90;;;;;;4983080;28;20179;-74
2023/05/30 04:41:58;;;;;;;3.73;1.77;;;14.70;99.90;;;;;;4980350;28;20209;-74
2023/05/30 04:44:24;;;;;;;5.10;1.90;;;14.70;99.90;;;;;;4983980;28;20245;-73
2023/05/30 04:46:50;;;;;;;4.17;1.90;;;14.70;99.90;;;;;;4973899;28;20205;-74
2023/05/30 04:49:16;;;;;;;5.07;2.07;;;14.80;99.90;;;;;;4992113;28;20261;-73
2023/05/30 04:51:45;;;;;;;4.90;2.00;;;15.00;99.90;;;;;;4977649;28;20173;-74
2023/05/30 04:54:12;;;;;;;4.00;2.00;;;15.10;99.90;;;;;;4983445;28;20177;-75
2023/05/30 04:56:39;;;;;;;4.00;1.83;;;15.50;99.90;;;;;;4987614;28;20181;-75
2023/05/30 04:59:05;;;;;;;3.87;1.90;;;15.70;99.90;;;;;;4991526;28;20822;-75
2023/05/30 05:01:35;;;;;;;4.00;1.70;;;15.80;99.90;;;;;;4973523;28;20181;-75
2023/05/30 05:04:03;;;;;;;5.17;1.70;;;15.80;99.90;;;;;;4962749;28;20181;-76
2023/05/30 05:06:29;;;;;;;4.37;1.87;;;15.50;99.90;;;;;;4961964;28;20201;-75
2023/05/30 05:08:55;;;;;;;3.33;1.80;;;15.20;99.90;;;;;;4970283;28;20177;-73
2023/05/30 05:11:21;;;;;;;4.77;1.90;;;15.20;99.90;;;;;;4973532;28;20176;-75
2023/05/30 05:13:47;;;;;;;2.57;1.63;;;15.20;99.90;;;;;;4979067;28;20201;-75
2023/05/30 05:16:12;;;;;;;7.57;2.30;;;15.10;99.90;;;;;;4962051;28;20177;-75
2023/05/30 05:18:38;;;;;;;4.40;1.90;;;15.10;99.90;;;;;;4977882;28;20671;-74
2023/05/30 05:21:05;;;;;;;4.13;1.73;;;15.10;99.90;;;;;;4967943;28;20251;-74
2023/05/30 05:23:30;;;;;;;6.03;2.00;;;15.10;99.90;;;;;;4966655;28;20221;-75
2023/05/30 05:26:00;;;;;;;5.83;1.70;;;15.00;99.90;;;;;;4971081;28;20201;-74
2023/05/30 05:28:25;;;;;;;4.53;1.90;;;15.10;99.90;;;;;;4995670;28;20177;-75
2023/05/30 05:30:51;;;;;;;3.53;1.43;;;15.10;99.90;;;;;;4996675;28;20192;-74
2023/05/30 05:33:16;;;;;;;7.50;1.87;;;15.20;99.90;;;;;;4995043;28;20200;-72
2023/05/30 05:35:42;;;;;;;5.23;2.23;;;15.20;99.90;;;;;;4981575;28;20177;-75
2023/05/30 05:38:07;;;;;;;6.13;2.53;;;15.10;99.90;;;;;;4967395;28;20173;-75
2023/05/30 05:40:33;;;;;;;6.60;2.20;;;15.30;99.90;;;;;;4976048;28;20173;-75
2023/05/30 05:42:58;;;;;;;6.50;2.40;;;15.30;99.90;;;;;;4976225;28;20193;-75
2023/05/30 05:45:24;;;;;;;5.23;2.20;;;15.50;99.90;;;;;;4970752;28;20223;-73
2023/05/30 05:47:49;;;;;;;4.93;1.90;;;15.70;99.90;;;;;;4981370;28;20204;-74
2023/05/30 05:50:15;;;;;;;5.73;2.13;;;16.00;99.90;;;;;;4964271;28;20180;-75
2023/05/30 05:52:41;;;;;;;6.73;2.10;;;16.00;99.90;;;;;;4978685;28;20631;-73
2023/05/30 05:55:07;;;;;;;6.93;2.20;;;15.90;99.90;;;;;;4981754;28;20176;-73
2023/05/30 05:57:32;;;;;;;6.23;2.43;;;15.90;99.90;;;;;;4971438;28;20177;-74
2023/05/30 05:59:58;;;;;;;4.77;2.20;;;15.80;99.90;;;;;;4969942;28;20200;-74
2023/05/30 06:02:23;;;;;;;3.97;2.10;;;16.00;99.90;;;;;;4970059;28;20235;-75
2023/05/30 06:04:49;;;;;;;4.20;1.83;;;16.10;99.90;;;;;;4968505;28;20181;-74
2023/05/30 06:07:15;;;;;;;4.57;2.10;;;16.10;99.90;;;;;;4958976;28;20206;-74
2023/05/30 06:09:41;;;;;;;6.73;2.50;;;16.10;99.90;;;;;;4970960;28;20631;-75
2023/05/30 06:12:07;;;;;;;6.60;2.27;;;16.10;99.90;;;;;;4971028;28;20266;-75
2023/05/30 06:14:32;;;;;;;5.80;1.97;;;16.00;99.90;;;;;;4974911;28;20172;-75
2023/05/30 06:16:58;;;;;;;7.73;2.17;;;16.20;99.90;;;;;;4970464;28;20545;-75
2023/05/30 06:19:24;;;;;;;12.80;2.07;;;16.40;99.90;;;;;;4962996;28;20189;-74
2023/05/30 06:21:49;;;;;;;4.53;1.80;;;16.30;99.90;;;;;;4959743;28;20599;-74
2023/05/30 06:24:15;;;;;;;6.43;1.90;;;16.50;99.90;;;;;;5010506;23;20613;-78
2023/05/30 06:26:40;;;;;;;4.67;1.87;;;16.30;99.90;;;;;;4996258;28;20284;-79
2023/05/30 06:29:06;;;;;;;6.03;2.13;;;16.20;99.90;;;;;;4996455;28;20204;-79
2023/05/30 06:31:31;;;;;;;2.40;1.60;;;16.50;99.90;;;;;;4995339;28;20181;-78
2023/05/30 06:33:57;;;;;;;3.57;1.93;;;16.40;99.90;;;;;;5008094;28;20189;-78
2023/05/30 06:36:22;;;;;;;4.60;1.73;;;16.70;99.90;;;;;;5006479;28;20188;-78
2023/05/30 06:38:48;;;;;;;5.20;2.10;;;16.70;99.90;;;;;;4993190;28;20181;-78
2023/05/30 06:41:13;;;;;;;4.30;1.90;;;16.80;99.90;;;;;;4984924;28;20183;-79
2023/05/30 06:43:39;;;;;;;6.30;2.50;;;16.80;99.90;;;;;;5009112;28;20278;-79
2023/05/30 06:46:05;;;;;;;5.20;2.13;;;16.90;99.90;;;;;;4995262;28;20252;-79
2023/05/30 06:48:31;;;;;;;6.70;2.10;;;17.00;99.90;;;;;;4981534;28;20248;-78
2023/05/30 06:50:56;;;;;;;5.00;1.80;;;16.90;99.90;;;;;;5004275;28;20177;-78
2023/05/30 06:53:22;;;;;;;8.97;2.00;;;17.00;99.90;;;;;;5001210;28;20194;-78
2023/05/30 06:55:47;;;;;;;6.80;1.93;;;16.80;99.90;;;;;;4986771;28;20677;-79
2023/05/30 06:58:13;;;;;;;6.30;2.13;;;16.70;99.90;;;;;;5028326;28;20175;-79
2023/05/30 07:00:40;;;;;;;6.67;2.10;;;16.80;99.90;;;;;;4993134;28;20188;-79
2023/05/30 07:03:06;;;;;;;3.13;1.70;;;16.90;99.90;;;;;;4986085;28;20200;-78
2023/05/30 07:05:31;;;;;;;6.20;2.00;;;16.90;99.90;;;;;;4990343;28;20193;-78
2023/05/30 07:07:56;;;;;;;4.73;1.90;;;16.90;99.90;;;;;;4995020;28;20207;-78
2023/05/30 07:10:22;;;;;;;5.83;2.43;;;16.90;99.90;;;;;;4984788;28;20643;-79
2023/05/30 07:12:48;;;;;;;4.47;1.80;;;16.80;99.90;;;;;;4992055;28;20265;-78
2023/05/30 07:15:13;;;;;;;3.37;1.90;;;16.90;99.90;;;;;;5003382;28;20176;-78
2023/05/30 07:17:39;;;;;;;2.03;1.70;;;16.90;99.90;;;;;;5009043;28;20180;-78
2023/05/30 07:20:06;;;;;;;5.30;1.80;;;16.80;99.90;;;;;;4996353;28;20268;-79
2023/05/30 07:22:32;;;;;;;7.70;2.40;;;17.00;99.90;;;;;;4995790;28;20228;-78
2023/05/30 07:24:57;;;;;;;6.37;2.10;;;17.20;99.90;;;;;;4990743;28;20185;-77
2023/05/30 07:27:23;;;;;;;3.97;1.90;;;16.90;99.90;;;;;;4991624;28;20867;-78
2023/05/30 07:29:48;;;;;;;2.97;1.80;;;16.90;99.90;;;;;;4993880;28;20177;-76
2023/05/30 07:32:14;;;;;;;5.87;1.90;;;17.00;99.90;;;;;;4988485;28;20688;-79
2023/05/30 07:34:40;;;;;;;5.93;1.90;;;16.90;99.90;;;;;;5006641;28;20188;-77
2023/05/30 07:37:06;;;;;;;4.27;2.00;;;17.10;99.90;;;;;;4988377;28;20222;-76
2023/05/30 07:39:32;;;;;;;4.20;2.40;;;17.70;99.90;;;;;;4991594;28;20186;-78
2023/05/30 07:41:57;;;;;;;4.27;1.70;;;17.70;99.90;;;;;;4980621;28;20547;-78
2023/05/30 07:44:22;;;;;;;3.80;1.80;;;17.90;99.90;;;;;;5003715;28;20267;-76
2023/05/30 07:46:48;;;;;;;5.47;2.00;;;17.80;99.90;;;;;;5005543;28;20203;-77
2023/05/30 07:49:14;;;;;;;5.80;1.87;;;17.80;99.90;;;;;;4991027;28;20180;-78
2023/05/30 07:51:39;;;;;;;4.83;2.00;;;18.10;99.90;;;;;;4990533;28;20192;-79
2023/05/30 07:54:05;;;;;;;5.10;2.27;;;18.20;99.90;;;;;;4995330;28;20196;-79
2023/05/30 07:56:31;;;;;;;2.90;1.70;;;18.30;99.90;;;;;;5000830;28;20180;-78
2023/05/30 07:58:57;;;;;;;4.67;2.17;;;18.10;99.90;;;;;;5004375;28;20281;-78
2023/05/30 08:01:22;;;;;;;4.33;1.60;;;18.30;99.90;;;;;;4984303;28;20184;-78
2023/05/30 08:03:48;;;;;;;5.83;2.10;;;18.20;99.90;;;;;;4995528;28;20238;-79
2023/05/30 08:06:13;;;;;;;5.22;2.30;;;18.20;99.90;;;;;;4996002;28;20549;-79
2023/05/30 08:08:39;;;;;;;3.57;1.80;;;18.40;99.90;;;;;;5001039;28;20203;-77
2023/05/30 08:11:05;;;;;;;2.73;2.00;;;18.40;99.90;;;;;;5011917;28;20202;-78
2023/05/30 08:13:31;;;;;;;4.23;2.23;;;18.50;99.90;;;;;;4994710;28;20574;-78
2023/05/30 08:15:56;;;;;;;5.67;3.23;;;18.40;99.90;;;;;;5014367;28;20179;-76
2023/05/30 08:18:22;;;;;;;2.20;1.70;;;18.30;99.90;;;;;;4995338;28;20545;-77
2023/05/30 08:20:50;;;;;;;4.13;2.07;;;18.40;99.90;;;;;;4985935;28;20181;-78
2023/05/30 08:23:16;;;;;;;3.73;1.97;;;18.50;99.90;;;;;;4989410;28;20201;-78
2023/05/30 08:25:45;;;;;;;5.30;2.00;;;18.60;99.90;;;;;;5007109;28;20199;-78
2023/05/30 08:28:11;;;;;;;3.57;2.27;;;18.70;99.90;;;;;;5007397;28;20168;-76
2023/05/30 08:30:36;;;;;;;4.20;2.23;;;18.60;99.90;;;;;;4995578;28;20176;-77
2023/05/30 08:33:02;;;;;;;4.68;2.10;;;18.80;99.90;;;;;;4999571;28;20189;-76
2023/05/30 08:35:28;;;;;;;5.13;2.05;;;18.90;99.90;;;;;;4993954;28;20177;-78
2023/05/30 08:37:53;;;;;;;3.75;2.22;;;19.10;99.90;;;;;;4998017;28;20240;-77
2023/05/30 08:40:21;;;;;;;6.03;2.33;;;18.60;99.90;;;;;;5009343;28;20172;-78
2023/05/30 08:42:47;;;;;;;4.60;2.00;;;18.70;99.90;;;;;;4988772;28;20716;-79
2023/05/30 08:45:13;;;;;;;3.80;1.80;;;18.70;99.90;;;;;;5007264;28;20184;-79
2023/05/30 08:47:39;;;;;;;4.13;2.03;;;18.90;99.90;;;;;;4988088;28;20223;-77
2023/05/30 08:50:07;;;;;;;5.20;2.10;;;18.80;99.90;;;;;;5001782;28;20187;-78
2023/05/30 08:52:33;;;;;;;4.90;1.80;;;19.00;99.90;;;;;;5006510;28;20204;-77
2023/05/30 08:55:07;;;;;;;4.77;1.60;;;19.20;99.90;;;;;;4984326;28;20184;-77
2023/05/30 08:58:01;;;;;;;5.30;2.10;;;19.00;99.90;;;;;;4985678;28;20183;-78
2023/05/30 09:00:27;;;;;;;5.30;1.80;;;18.90;99.90;;;;;;5006749;28;20263;-78
2023/05/30 09:02:55;;;;;;;4.77;2.20;;;19.10;99.90;;;;;;4996528;28;20224;-78
2023/05/30 09:05:21;;;;;;;4.77;2.00;;;19.00;99.90;;;;;;4990813;28;20216;-78
2023/05/30 09:07:48;;;;;;;4.37;2.20;;;19.20;99.90;;;;;;4994381;28;20212;-78
2023/05/30 09:10:15;;;;;;;4.63;2.60;;;19.30;99.90;;;;;;4990899;28;20203;-79
2023/05/30 09:12:42;;;;;;;4.30;1.77;;;19.20;99.90;;;;;;4994533;28;20208;-78
2023/05/30 09:15:08;;;;;;;3.40;1.75;;;19.50;99.90;;;;;;4993774;28;20558;-78
2023/05/30 09:17:34;;;;;;;4.70;1.80;;;19.50;99.90;;;;;;4988702;28;20188;-77
2023/05/30 09:20:00;;;;;;;6.00;2.42;;;19.70;99.90;;;;;;4988177;28;20207;-78
2023/05/30 09:22:27;;;;;;;1.88;1.77;;;19.90;99.90;;;;;;4993886;28;20189;-80
2023/05/30 09:25:00;;;;;;;5.15;1.90;;;20.00;99.90;;;;;;4994515;28;20188;-79
2023/05/30 09:27:28;;;;;;;5.60;2.28;;;19.90;99.90;;;;;;4995696;28;20759;-78
2023/05/30 09:29:54;;;;;;;3.85;2.10;;;20.20;99.90;;;;;;4996486;28;20232;-79
2023/05/30 09:32:25;;;;;;;3.80;1.85;;;20.10;99.90;;;;;;5011926;28;20172;-78
2023/05/30 09:34:57;;;;;;;4.65;1.85;;;20.60;99.90;;;;;;4996092;28;20548;-77
2023/05/30 09:37:23;;;;;;;4.55;2.05;;;20.00;99.90;;;;;;4996568;28;20176;-79
2023/05/30 09:40:13;;;;;;;6.60;2.33;;;20.40;99.90;;;;;;4996704;28;20214;-78
2023/05/30 09:42:45;;;;;;;5.97;2.22;;;20.50;99.90;;;;;;4981100;28;20204;-77
2023/05/30 09:45:12;;;;;;;3.83;2.10;;;20.60;99.90;;;;;;4991119;28;20185;-78
2023/05/30 09:47:39;;;;;;;3.97;2.20;;;20.90;99.90;;;;;;4990324;28;20220;-76
2023/05/30 09:50:07;;;;;;;4.32;2.17;;;20.80;99.90;;;;;;4990137;28;20256;-77
2023/05/30 09:52:33;;;;;;;3.88;2.05;;;20.80;99.90;;;;;;5004818;28;20203;-79
2023/05/30 09:54:59;;;;;;;5.60;2.00;;;20.90;99.90;;;;;;5018871;28;20213;-79
2023/05/30 09:57:27;;;;;;;3.53;1.92;;;20.70;99.90;;;;;;5003035;28;20172;-78
2023/05/30 09:59:53;;;;;;;5.22;2.33;;;20.60;99.90;;;;;;4994954;28;20214;-77
2023/05/30 10:02:22;;;;;;;5.78;1.83;;;20.60;99.90;;;;;;4994411;28;20182;-77
2023/05/30 10:04:51;;;;;;;5.15;2.20;;;20.80;99.90;;;;;;4993387;28;20184;-78
2023/05/30 10:07:19;;;;;;;3.83;2.03;;;20.90;99.90;;;;;;5021027;28;20294;-79
2023/05/30 10:09:51;;;;;;;2.88;1.80;;;21.10;99.90;;;;;;4997646;28;20231;-78
2023/05/30 10:12:17;;;;;;;3.25;1.75;;;21.20;99.90;;;;;;4986121;28;20172;-78
2023/05/30 10:14:43;;;;;;;3.47;2.13;;;21.60;99.90;;;;;;5002320;28;20186;-77
2023/05/30 10:17:16;;;;;;;7.18;2.35;;;21.80;99.90;;;;;;4991381;28;20575;-77
2023/05/30 10:19:59;;;;;;;5.72;2.00;;;21.40;99.90;;;;;;4993806;28;20544;-78
2023/05/30 10:22:27;;;;;;;6.22;2.22;;;21.20;99.90;;;;;;5004042;28;20188;-78
2023/05/30 10:24:54;;;;;;;7.15;2.10;;;21.40;99.90;;;;;;4990377;28;20180;-79
2023/05/30 10:27:29;;;;;;;2.03;1.80;;;21.00;99.90;;;;;;4990602;28;20204;-78
2023/05/30 10:30:06;;;;;;;5.95;2.13;;;21.30;99.90;;;;;;4998629;28;20194;-79
2023/05/30 10:32:41;;;;;;;2.33;1.90;;;21.30;99.90;;;;;;4998182;28;20191;-78
2023/05/30 10:35:18;;;;;;;6.22;2.25;;;21.70;99.90;;;;;;4998236;28;20230;-78
2023/05/30 10:37:45;;;;;;;6.45;2.00;;;21.80;99.90;;;;;;4983550;28;20198;-79
2023/05/30 10:40:47;;;;;;;2.30;1.70;;;21.90;99.90;;;;;;4981145;28;20181;-78
2023/05/30 10:43:44;;;;;;;2.88;1.98;;;22.30;99.90;;;;;;5006825;28;20203;-78
2023/05/30 10:46:31;;;;;;;5.07;2.17;;;22.00;99.90;;;;;;4999657;28;20226;-79
2023/05/30 10:49:10;;;;;;;5.25;2.53;;;22.10;99.90;;;;;;5003193;28;20183;-79
2023/05/30 10:52:01;;;;;;;3.63;2.05;;;22.20;99.90;;;;;;4994052;28;20424;-79
2023/05/30 10:54:32;;;;;;;3.22;1.80;;;22.50;99.90;;;;;;5005309;28;20189;-79
2023/05/30 10:57:01;;;;;;;5.38;2.08;;;22.40;99.90;;;;;;4983389;28;20260;-78
2023/05/30 10:59:26;;;;;;;2.97;2.30;;;22.30;99.90;;;;;;4991054;28;20187;-79
2023/05/30 11:02:02;;;;;;;4.75;2.03;;;22.20;99.90;;;;;;4991985;28;20706;-78
2023/05/30 11:04:42;;;;;;;4.00;2.00;;;22.60;99.90;;;;;;5003131;28;20566;-80
2023/05/30 11:07:11;;;;;;;4.15;2.08;;;22.70;99.90;;;;;;4985783;28;20192;-77
2023/05/30 11:10:06;;;;;;;2.60;2.40;;;22.10;99.90;;;;;;4988132;28;20205;-77
2023/05/30 11:12:32;;;;;;;3.80;2.45;;;22.30;99.90;;;;;;5001994;28;20567;-77
2023/05/30 11:15:00;;;;;;;6.18;2.08;;;22.40;99.90;;;;;;5002964;28;20223;-78
2023/05/30 11:17:35;;;;;;;4.82;2.17;;;22.00;99.90;;;;;;5000864;28;20540;-76
2023/05/30 11:20:16;;;;;;;4.43;2.33;;;22.20;99.90;;;;;;4999223;28;20203;-76
2023/05/30 11:23:01;;;;;;;5.13;2.10;;;22.30;99.90;;;;;;5005539;28;20207;-76
2023/05/30 11:25:32;;;;;;;6.18;3.13;;;22.60;99.90;;;;;;5000298;28;20652;-77
2023/05/30 11:28:03;;;;;;;4.95;2.55;;;22.70;99.90;;;;;;4995579;28;20204;-76
2023/05/30 11:30:35;;;;;;;4.13;2.08;;;22.80;99.20;;;;;;5006660;28;20681;-78
2023/05/30 11:33:01;;;;;;;2.65;2.30;;;22.80;99.90;;;;;;4988378;28;20191;-77
2023/05/30 11:35:27;;;;;;;4.07;2.25;;;22.60;98.50;;;;;;4987621;28;20235;-76
2023/05/30 11:37:54;;;;;;;3.83;2.35;;;22.50;98.50;;;;;;4980623;28;20168;-77
2023/05/30 11:40:25;;;;;;;4.25;2.08;;;22.90;97.70;;;;;;4977791;28;20173;-77
2023/05/30 11:42:52;;;;;;;7.22;2.58;;;23.00;96.90;;;;;;5000690;28;20279;-77
2023/05/30 11:45:19;;;;;;;3.65;2.10;;;23.00;98.40;;;;;;4983143;28;20691;-78
2023/05/30 11:47:46;;;;;;;3.53;2.20;;;23.00;98.20;;;;;;4997173;28;20204;-76
2023/05/30 11:50:12;;;;;;;3.72;2.47;;;23.30;99.00;;;;;;4991283;28;20661;-79
2023/05/30 11:52:40;;;;;;;3.92;2.53;;;23.20;96.60;;;;;;4985641;28;20204;-78
2023/05/30 11:55:07;;;;;;;4.90;2.45;;;22.90;97.10;;;;;;4993259;28;20172;-78
2023/05/30 11:57:33;;;;;;;2.35;1.88;;;23.00;98.00;;;;;;4997822;28;20177;-75
2023/05/30 11:59:59;;;;;;;5.22;2.30;;;23.10;96.60;;;;;;4986596;28;20257;-77
2023/05/30 12:02:28;;;;;;;3.88;2.35;;;23.20;96.20;;;;;;5000764;28;20672;-77
2023/05/30 12:05:03;;;;;;;5.50;2.15;;;23.70;94.00;;;;;;5014798;28;20198;-77
2023/05/30 12:07:28;;;;;;;6.22;2.28;;;23.60;93.80;;;;;;4997457;28;20212;-76
2023/05/30 12:09:54;;;;;;;4.38;1.85;;;23.80;93.10;;;;;;4995748;28;20174;-77
2023/05/30 12:12:20;;;;;;;8.88;2.10;;;23.60;94.30;;;;;;4995466;28;20645;-76
2023/05/30 12:14:46;;;;;;;3.75;2.30;;;24.00;93.80;;;;;;4990156;28;20170;-77
2023/05/30 12:17:20;;;;;;;6.03;2.35;;;23.80;92.60;;;;;;5005169;28;20168;-77
2023/05/30 12:19:46;;;;;;;5.18;2.05;;;23.80;92.10;;;;;;4999228;28;20453;-78
2023/05/30 12:22:15;;;;;;;2.92;2.20;;;23.80;92.10;;;;;;4995280;28;20189;-77
2023/05/30 12:24:41;;;;;;;3.35;2.15;;;24.30;91.70;;;;;;5068974;23;20231;-76
2023/05/30 12:27:15;;;;;;;4.70;2.50;;;24.00;91.10;;;;;;5075751;28;20645;-75
2023/05/30 12:29:41;;;;;;;2.35;2.15;;;24.40;89.50;;;;;;5075879;28;20177;-75
2023/05/30 12:32:07;;;;;;;9.63;2.58;;;24.30;89.10;;;;;;5087996;28;20169;-75
2023/05/30 12:34:45;;;;;;;5.10;2.30;;;23.90;90.30;;;;;;5079351;28;20198;-75
2023/05/30 12:37:13;;;;;;;5.35;2.03;;;24.00;88.10;;;;;;5075161;28;20211;-74
2023/05/30 12:39:50;;;;;;;3.80;2.35;;;23.60;83.50;;;;;;5064356;28;20177;-75
2023/05/30 12:42:21;;;;;;;2.78;2.22;;;24.00;86.90;;;;;;5046266;28;20168;-74
2023/05/30 12:44:52;;;;;;;3.97;2.15;;;23.80;86.00;;;;;;5072002;28;20186;-74
2023/05/30 12:47:17;;;;;;;3.45;2.08;;;23.90;83.10;;;;;;5076193;28;20193;-75
2023/05/30 12:49:49;;;;;;;3.60;2.05;;;24.00;84.10;;;;;;5066005;28;20172;-74
2023/05/30 12:52:17;;;;;;;4.05;2.60;;;24.40;83.60;;;;;;5058405;28;20162;-76